createdAt,value
2022-12-23T00:00:45.860Z,94746.13
2022-12-23T00:03:13.456Z,94750.28
2022-12-23T00:05:41.503Z,94756.22
2022-12-23T00:08:09.248Z,94762.47
2022-12-23T00:10:40.259Z,94754.16
2022-12-23T00:13:25.899Z,94757.03
2022-12-23T00:16:02.368Z,94749.75
2022-12-23T00:18:29.826Z,94754.16
2022-12-23T00:21:06.582Z,94761.94
2022-12-23T00:23:36.364Z,94767.41
2022-12-23T00:26:05.865Z,94770.78
2022-12-23T00:28:33.381Z,94767.66
2022-12-23T00:31:02.737Z,94775.19
2022-12-23T00:33:32.486Z,94780.38
2022-12-23T00:36:00.275Z,94783.22
2022-12-23T00:38:46.369Z,94778.84
2022-12-23T00:41:35.389Z,94778.84
2022-12-23T00:44:03.915Z,94778.03
2022-12-23T00:46:31.931Z,94785.06
2022-12-23T00:49:13.456Z,94786.09
2022-12-23T00:51:41.223Z,94784.78
2022-12-23T00:54:08.739Z,94789.97
2022-12-23T00:56:37.526Z,94801.41
2022-12-23T00:59:05.102Z,94804.78
2022-12-23T01:01:50.219Z,94804.78
2022-12-23T01:04:36.982Z,94806.34
2022-12-23T01:07:05.507Z,94809.69
2022-12-23T01:09:32.965Z,94819.31
2022-12-23T01:12:02.150Z,94823.22
2022-12-23T01:14:30.084Z,94822.97
2022-12-23T01:16:57.633Z,94811.78
2022-12-23T01:19:25.585Z,94824.50
2022-12-23T01:21:53.020Z,94815.69
2022-12-23T01:24:20.575Z,94818.53
2022-12-23T01:26:48.038Z,94814.13
2022-12-23T01:29:16.807Z,94812.56
2022-12-23T01:31:44.298Z,94823.47
2022-12-23T01:34:11.758Z,94823.47
2022-12-23T01:36:39.209Z,94828.91
2022-12-23T01:39:06.761Z,94826.59
2022-12-23T01:41:52.356Z,94832.03
2022-12-23T01:44:57.094Z,94834.91
2022-12-23T01:47:34.955Z,94844.50
2022-12-23T01:50:09.209Z,94837.22
2022-12-23T01:52:41.810Z,94848.13
2022-12-23T01:55:10.909Z,94859.03
2022-12-23T01:57:41.793Z,94852.03
2022-12-23T02:00:29.502Z,94857.25
2022-12-23T02:03:20.131Z,94846.03
2022-12-23T02:05:49.131Z,94838.53
2022-12-23T02:08:35.856Z,94843.97
2022-12-23T02:11:23.507Z,94840.06
2022-12-23T02:14:14.701Z,94834.09
2022-12-23T02:16:51.093Z,94829.94
2022-12-23T02:19:32.801Z,94845.28
2022-12-23T02:22:17.288Z,94858.28
2022-12-23T02:25:13.669Z,94858.53
2022-12-23T02:27:53.408Z,94870.47
2022-12-23T02:30:28.958Z,94858.28
2022-12-23T02:33:16.260Z,94867.88
2022-12-23T02:35:52.021Z,94838.53
2022-12-23T02:38:27.665Z,94860.34
2022-12-23T02:41:05.668Z,94864.25
2022-12-23T02:43:41.303Z,94867.63
2022-12-23T02:46:15.233Z,94880.59
2022-12-23T02:48:48.360Z,94877.50
2022-12-23T02:51:16.824Z,94891.53
2022-12-23T02:53:48.705Z,94885.81
2022-12-23T02:56:19.069Z,94896.72
2022-12-23T02:58:51.843Z,94904.00
2022-12-23T03:01:21.601Z,94905.03
2022-12-23T03:03:51.884Z,94914.09
2022-12-23T03:06:23.885Z,94922.16
2022-12-23T03:08:54.773Z,94917.22
2022-12-23T03:11:22.563Z,94925.78
2022-12-23T03:14:05.175Z,94921.38
2022-12-23T03:16:46.484Z,94883.72
2022-12-23T03:19:21.338Z,94923.19
2022-12-23T03:21:57.844Z,94922.66
2022-12-23T03:24:33.629Z,94928.09
2022-12-23T03:27:08.770Z,94922.13
2022-12-23T03:29:42.589Z,94924.97
2022-12-23T03:32:13.971Z,94918.22
2022-12-23T03:34:44.956Z,94922.13
2022-12-23T03:37:16.119Z,94929.13
2022-12-23T03:39:49.830Z,94917.44
2022-12-23T03:42:23.569Z,94937.19
2022-12-23T03:45:27.929Z,94924.75
2022-12-23T03:47:45.962Z,94926.81
2022-12-23T03:50:16.368Z,94930.19
2022-12-23T03:52:51.114Z,94934.84
2022-12-23T03:55:24.276Z,94933.56
2022-12-23T03:57:59.149Z,94931.47
2022-12-23T04:00:30.703Z,94926.53
2022-12-23T04:03:07.024Z,94934.06
2022-12-23T04:05:38.853Z,94929.41
2022-12-23T04:08:12.673Z,94929.38
2022-12-23T04:10:40.447Z,94921.88
2022-12-23T04:13:08.815Z,94920.81
2022-12-23T04:15:40.449Z,94919.00
2022-12-23T04:18:10.752Z,94917.94
2022-12-23T04:20:38.213Z,94915.84
2022-12-23T04:23:05.994Z,94918.97
2022-12-23T04:25:33.501Z,94928.59
2022-12-23T04:28:00.929Z,94926.50
2022-12-23T04:30:33.867Z,94925.72
2022-12-23T04:33:01.720Z,94930.16
2022-12-23T04:35:30.983Z,94920.00
2022-12-23T04:37:58.553Z,94919.22
2022-12-23T04:40:26.076Z,94928.06
2022-12-23T04:42:53.705Z,94923.34
2022-12-23T04:45:21.190Z,94915.56
2022-12-23T04:47:48.639Z,94924.38
2022-12-23T04:50:17.332Z,94909.00
2022-12-23T04:52:46.134Z,94937.09
2022-12-23T04:55:13.602Z,94942.28
2022-12-23T04:57:41.142Z,94924.41
2022-12-23T05:00:09.892Z,94928.81
2022-12-23T05:02:37.470Z,94928.84
2022-12-23T05:05:05.564Z,94934.03
2022-12-23T05:07:33.009Z,94929.38
2022-12-23T05:10:02.128Z,94938.19
2022-12-23T05:12:30.581Z,94949.84
2022-12-23T05:14:58.051Z,94944.41
2022-12-23T05:17:25.529Z,94944.41
2022-12-23T05:19:52.968Z,94943.91
2022-12-23T05:22:20.396Z,94958.19
2022-12-23T05:24:48.079Z,94961.53
2022-12-23T05:27:16.929Z,94952.72
2022-12-23T05:29:44.393Z,94951.97
2022-12-23T05:32:11.910Z,94937.66
2022-12-23T05:34:39.389Z,94955.84
2022-12-23T05:37:07.453Z,94947.25
2022-12-23T05:39:34.899Z,94946.44
2022-12-23T05:42:02.354Z,94943.59
2022-12-23T05:44:31.118Z,94925.94
2022-12-23T05:46:58.546Z,94966.47
2022-12-23T05:49:26.621Z,94970.34
2022-12-23T05:51:54.102Z,94969.81
2022-12-23T05:54:21.528Z,94967.72
2022-12-23T05:56:48.991Z,94976.28
2022-12-23T05:59:16.428Z,94982.00
2022-12-23T06:01:45.344Z,94973.72
2022-12-23T06:04:12.903Z,94982.78
2022-12-23T06:06:40.413Z,94981.00
2022-12-23T06:09:07.837Z,94979.16
2022-12-23T06:11:35.275Z,94978.91
2022-12-23T06:14:03.541Z,94968.00
2022-12-23T06:16:31.004Z,94980.72
2022-12-23T06:19:00.068Z,94966.44
2022-12-23T06:21:27.552Z,94977.38
2022-12-23T06:23:55.108Z,94984.38
2022-12-23T06:26:22.599Z,94968.78
2022-12-23T06:28:50.050Z,94978.66
2022-12-23T06:31:17.513Z,94966.19
2022-12-23T06:33:45.109Z,94958.13
2022-12-23T06:36:13.886Z,94963.56
2022-12-23T06:38:41.364Z,94958.66
2022-12-23T06:41:08.839Z,94959.91
2022-12-23T06:43:36.273Z,94952.13
2022-12-23T06:46:03.735Z,94951.63
2022-12-23T06:48:31.288Z,94906.94
2022-12-23T06:50:58.772Z,94947.97
2022-12-23T06:53:27.576Z,94939.97
2022-12-23T06:56:00.469Z,94951.13
2022-12-23T06:58:27.952Z,94953.69
2022-12-23T07:00:55.398Z,94963.03
2022-12-23T07:03:23.032Z,94971.84
2022-12-23T07:05:50.544Z,94958.09
2022-12-23T07:08:18.604Z,94966.66
2022-12-23T07:10:47.714Z,94984.28
2022-12-23T07:13:15.233Z,94991.28
2022-12-23T07:15:42.749Z,94995.22
2022-12-23T07:18:10.168Z,94995.22
2022-12-23T07:20:37.616Z,95001.97
2022-12-23T07:23:05.060Z,95002.22
2022-12-23T07:25:32.503Z,95007.41
2022-12-23T07:28:01.300Z,95000.66
2022-12-23T07:30:29.059Z,94985.59
2022-12-23T07:32:56.535Z,94998.88
2022-12-23T07:35:24.029Z,95000.72
2022-12-23T07:37:52.600Z,94983.06
2022-12-23T07:40:20.062Z,94984.63
2022-12-23T07:42:49.741Z,94981.69
2022-12-23T07:45:18.528Z,94988.44
2022-12-23T07:47:46.003Z,94995.22
2022-12-23T07:50:13.699Z,94979.34
2022-12-23T07:52:41.174Z,94993.63
2022-12-23T07:55:09.497Z,94986.88
2022-12-23T07:57:38.172Z,95006.09
2022-12-23T08:00:08.534Z,94997.75
2022-12-23T08:02:37.465Z,95011.78
2022-12-23T08:05:05.725Z,94997.53
2022-12-23T08:07:33.394Z,94991.06
2022-12-23T08:10:00.948Z,94980.66
2022-12-23T08:12:28.380Z,94993.38
2022-12-23T08:14:55.833Z,94987.38
2022-12-23T08:17:26.674Z,94997.56
2022-12-23T08:19:55.500Z,94994.19
2022-12-23T08:22:23.099Z,94993.44
2022-12-23T08:24:50.581Z,95000.69
2022-12-23T08:27:18.003Z,94992.13
2022-12-23T08:29:45.434Z,94984.34
2022-12-23T08:32:12.877Z,95001.22
2022-12-23T08:34:40.362Z,95000.94
2022-12-23T08:37:09.121Z,95005.38
2022-12-23T08:39:36.775Z,94998.34
2022-12-23T08:42:04.720Z,94995.47
2022-12-23T08:44:32.511Z,94983.84
2022-12-23T08:47:00.004Z,94977.59
2022-12-23T08:49:27.448Z,94977.59
2022-12-23T08:51:54.872Z,94981.53
2022-12-23T08:54:23.719Z,94989.84
2022-12-23T08:56:51.190Z,94989.34
2022-12-23T08:59:20.037Z,94973.22
2022-12-23T09:01:48.444Z,94968.28
2022-12-23T09:04:16.792Z,94977.91
2022-12-23T09:06:45.370Z,94965.19
2022-12-23T09:09:14.237Z,94962.59
2022-12-23T09:11:43.587Z,94972.97
2022-12-23T09:14:11.934Z,94962.34
2022-12-23T09:16:40.041Z,94967.25
2022-12-23T09:19:08.475Z,94956.66
2022-12-23T09:21:36.353Z,94970.13
2022-12-23T09:24:03.847Z,94963.09
2022-12-23T09:26:32.258Z,94957.13
2022-12-23T09:29:01.585Z,94935.84
2022-12-23T09:31:36.139Z,94944.91
2022-12-23T09:34:04.774Z,94944.88
2022-12-23T09:36:32.230Z,94943.34
2022-12-23T09:39:00.347Z,94932.72
2022-12-23T09:41:39.864Z,94932.97
2022-12-23T09:44:37.691Z,94924.13
2022-12-23T09:47:11.216Z,94937.63
2022-12-23T09:49:47.595Z,94935.00
2022-12-23T09:52:19.892Z,94931.88
2022-12-23T09:54:50.956Z,94920.75
2022-12-23T09:57:23.521Z,94923.56
2022-12-23T10:00:07.812Z,94919.72
2022-12-23T10:02:59.587Z,94894.25
2022-12-23T10:05:35.264Z,94889.84
2022-12-23T10:08:08.542Z,94878.19
2022-12-23T10:10:40.681Z,94865.44
2022-12-23T10:13:20.273Z,94829.88
2022-12-23T10:15:51.198Z,94861.59
2022-12-23T10:18:24.141Z,94868.56
2022-12-23T10:20:54.890Z,94828.84
2022-12-23T10:23:29.563Z,94854.31
2022-12-23T10:25:57.062Z,94854.06
2022-12-23T10:28:24.694Z,94837.97
2022-12-23T10:31:38.683Z,94828.63
2022-12-23T10:33:59.477Z,94813.06
2022-12-23T10:36:34.081Z,94816.47
2022-12-23T10:39:05.946Z,94807.91
2022-12-23T10:41:41.532Z,94815.97
2022-12-23T10:44:47.277Z,94817.53
2022-12-23T10:47:25.487Z,94799.88
2022-12-23T10:50:04.641Z,94809.97
2022-12-23T10:52:36.210Z,94800.13
2022-12-23T10:55:05.327Z,94787.13
2022-12-23T10:57:33.574Z,94796.75
2022-12-23T11:00:01.020Z,94787.94
2022-12-23T11:02:46.078Z,94792.84
2022-12-23T11:05:16.377Z,94794.94
2022-12-23T11:07:46.587Z,94783.75
2022-12-23T11:10:19.011Z,94783.78
2022-12-23T11:12:49.602Z,94776.00
2022-12-23T11:15:29.520Z,94774.16
2022-12-23T11:18:05.308Z,94774.16
2022-12-23T11:20:34.177Z,94770.00
2022-12-23T11:23:03.570Z,94761.72
2022-12-23T11:25:37.546Z,94764.81
2022-12-23T11:28:12.731Z,94765.09
2022-12-23T11:30:56.579Z,94750.81
2022-12-23T11:33:28.326Z,94725.88
2022-12-23T11:36:05.232Z,94718.38
2022-12-23T11:38:33.483Z,94717.31
2022-12-23T11:41:01.093Z,94707.44
2022-12-23T11:43:29.208Z,94699.63
2022-12-23T11:46:25.102Z,94682.75
2022-12-23T11:49:06.319Z,94685.06
2022-12-23T11:51:33.892Z,94665.63
2022-12-23T11:54:02.370Z,94663.56
2022-12-23T11:56:35.218Z,94667.41
2022-12-23T11:59:08.457Z,94638.88
2022-12-23T12:01:37.286Z,94625.38
2022-12-23T12:04:10.045Z,94638.09
2022-12-23T12:06:44.387Z,94625.84
2022-12-23T12:09:14.623Z,94624.28
2022-12-23T12:11:49.287Z,94609.25
2022-12-23T12:14:23.053Z,94641.72
2022-12-23T12:16:56.802Z,94634.94
2022-12-23T12:19:31.274Z,94620.63
2022-12-23T12:22:03.730Z,94600.13
2022-12-23T12:24:37.671Z,94606.38
2022-12-23T12:27:08.077Z,94592.88
2022-12-23T12:29:40.206Z,94583.03
2022-12-23T12:32:16.556Z,94581.69
2022-12-23T12:34:53.735Z,94569.25
2022-12-23T12:37:30.332Z,94566.41
2022-12-23T12:40:03.403Z,94553.09
2022-12-23T12:42:37.289Z,94563.22
2022-12-23T12:45:14.798Z,94542.63
2022-12-23T12:47:54.484Z,94567.28
2022-12-23T12:50:30.086Z,94552.72
2022-12-23T12:53:02.953Z,94512.25
2022-12-23T12:55:34.091Z,94532.94
2022-12-23T12:58:02.587Z,94544.31
2022-12-23T13:00:39.613Z,94550.50
2022-12-23T13:03:24.650Z,94538.25
2022-12-23T13:06:06.110Z,94541.88
2022-12-23T13:08:49.689Z,94543.13
2022-12-23T13:11:28.219Z,94529.09
2022-12-23T13:14:05.483Z,94513.59
2022-12-23T13:16:45.158Z,94542.28
2022-12-23T13:19:22.912Z,94527.47
2022-12-23T13:21:56.833Z,94526.38
2022-12-23T13:24:30.208Z,94523.00
2022-12-23T13:27:06.751Z,94532.81
2022-12-23T13:30:00.788Z,94536.94
2022-12-23T13:32:41.938Z,94518.31
2022-12-23T13:35:25.505Z,94512.53
2022-12-23T13:38:04.760Z,94501.06
2022-12-23T13:40:39.100Z,94505.47
2022-12-23T13:43:12.990Z,94505.63
2022-12-23T13:45:42.557Z,94497.50
2022-12-23T13:48:27.826Z,94502.66
2022-12-23T13:51:02.883Z,94500.97
2022-12-23T13:53:50.658Z,94515.41
2022-12-23T13:56:27.713Z,94517.47
2022-12-23T13:58:55.793Z,94520.50
2022-12-23T14:01:34.701Z,94517.28
2022-12-23T14:04:31.584Z,94492.66
2022-12-23T14:07:01.042Z,94484.22
2022-12-23T14:09:33.052Z,94479.44
2022-12-23T14:12:12.228Z,94491.63
2022-12-23T14:14:46.875Z,94472.66
2022-12-23T14:17:23.371Z,94478.22
2022-12-23T14:20:09.500Z,94477.91
2022-12-23T14:22:51.237Z,94490.00
2022-12-23T14:25:50.349Z,94483.56
2022-12-23T14:28:36.398Z,94479.81
2022-12-23T14:31:05.837Z,94468.53
2022-12-23T14:33:37.118Z,94451.63
2022-12-23T14:36:24.499Z,94474.78
2022-12-23T14:39:31.110Z,94471.31
2022-12-23T14:42:06.112Z,94464.75
2022-12-23T14:44:51.514Z,94455.56
2022-12-23T14:47:33.092Z,94435.91
2022-12-23T14:50:33.680Z,94450.91
2022-12-23T14:53:02.333Z,94463.97
2022-12-23T14:55:46.740Z,94462.81
2022-12-23T14:58:54.552Z,94476.34
2022-12-23T15:01:29.743Z,94470.53
2022-12-23T15:04:01.656Z,94471.88
2022-12-23T15:06:34.034Z,94478.47
2022-12-23T15:09:02.752Z,94467.84
2022-12-23T15:11:32.378Z,94478.38
2022-12-23T15:14:07.744Z,94474.47
2022-12-23T15:16:37.769Z,94483.00
2022-12-23T15:19:18.061Z,94479.63
2022-12-23T15:21:49.185Z,94467.44
2022-12-23T15:24:22.495Z,94474.41
2022-12-23T15:27:24.460Z,94481.91
2022-12-23T15:29:45.970Z,94480.16
2022-12-23T15:32:13.553Z,94498.50
2022-12-23T15:34:42.457Z,94500.69
2022-12-23T15:37:11.766Z,94502.31
2022-12-23T15:39:43.562Z,94502.59
2022-12-23T15:42:21.848Z,94502.25
2022-12-23T15:44:50.972Z,94490.22
2022-12-23T15:47:28.970Z,94518.34
2022-12-23T15:49:57.492Z,94508.97
2022-12-23T15:52:25.247Z,94528.31
2022-12-23T15:55:01.699Z,94521.53
2022-12-23T15:57:30.160Z,94521.19
2022-12-23T15:59:59.958Z,94528.78
2022-12-23T16:02:59.551Z,94520.34
2022-12-23T16:05:26.307Z,94536.94
2022-12-23T16:08:09.334Z,94545.09
2022-12-23T16:10:37.357Z,94543.69
2022-12-23T16:13:04.873Z,94546.44
2022-12-23T16:15:34.184Z,94500.03
2022-12-23T16:18:20.478Z,94539.91
2022-12-23T16:20:50.287Z,94543.00
2022-12-23T16:23:18.720Z,94569.72
2022-12-23T16:25:50.475Z,94565.22
2022-12-23T16:28:23.861Z,94563.81
2022-12-23T16:30:54.309Z,94567.19
2022-12-23T16:33:34.900Z,94530.69
2022-12-23T16:36:20.361Z,94577.53
2022-12-23T16:38:49.461Z,94587.56
2022-12-23T16:41:16.887Z,94595.50
2022-12-23T16:43:51.626Z,94536.69
2022-12-23T16:46:23.681Z,94583.75
2022-12-23T16:48:52.797Z,94594.28
2022-12-23T16:51:23.672Z,94582.25
2022-12-23T16:53:53.482Z,94604.97
2022-12-23T16:56:23.596Z,94605.38
2022-12-23T16:58:51.042Z,94600.56
2022-12-23T17:01:25.008Z,94611.78
2022-12-23T17:03:52.957Z,94611.81
2022-12-23T17:06:21.784Z,94603.66
2022-12-23T17:08:50.290Z,94610.78
2022-12-23T17:11:20.402Z,94596.56
2022-12-23T17:13:48.172Z,94630.75
2022-12-23T17:16:19.757Z,94598.59
2022-12-23T17:18:48.647Z,94634.16
2022-12-23T17:21:22.762Z,94659.25
2022-12-23T17:23:51.361Z,94649.13
2022-12-23T17:26:18.985Z,94611.31
2022-12-23T17:28:46.597Z,94621.19
2022-12-23T17:31:16.299Z,94577.88
2022-12-23T17:33:48.537Z,94570.94
2022-12-23T17:36:17.415Z,94627.09
2022-12-23T17:38:45.029Z,94629.59
2022-12-23T17:41:20.872Z,94622.34
2022-12-23T17:43:51.131Z,94650.56
2022-12-23T17:46:19.000Z,94595.38
2022-12-23T17:48:48.091Z,94638.41
2022-12-23T17:51:20.862Z,94630.03
2022-12-23T17:53:57.803Z,94630.94
2022-12-23T17:56:27.895Z,94621.91
2022-12-23T17:58:55.853Z,94662.81
2022-12-23T18:01:26.228Z,94624.44
2022-12-23T18:03:56.573Z,94616.78
2022-12-23T18:06:28.101Z,94658.47
2022-12-23T18:08:56.824Z,94663.72
2022-12-23T18:11:31.818Z,94653.91
2022-12-23T18:13:59.455Z,94658.03
2022-12-23T18:16:27.114Z,94633.72
2022-12-23T18:18:58.472Z,94657.69
2022-12-23T18:21:27.975Z,94619.47
2022-12-23T18:23:58.341Z,94650.44
2022-12-23T18:26:26.535Z,94636.91
2022-12-23T18:28:54.607Z,94661.16
2022-12-23T18:31:25.860Z,94675.06
2022-12-23T18:33:53.795Z,94675.31
2022-12-23T18:36:24.877Z,94687.00
2022-12-23T18:38:53.159Z,94658.25
2022-12-23T18:41:21.513Z,94684.53
2022-12-23T18:43:49.649Z,94662.72
2022-12-23T18:46:17.405Z,94706.28
2022-12-23T18:48:45.063Z,94667.06
2022-12-23T18:51:15.291Z,94684.16
2022-12-23T18:53:44.513Z,94686.50
2022-12-23T18:56:22.644Z,94698.66
2022-12-23T18:58:52.725Z,94689.88
2022-12-23T19:01:20.330Z,94728.84
2022-12-23T19:03:50.661Z,94698.78
2022-12-23T19:06:18.272Z,94707.69
2022-12-23T19:08:47.156Z,94729.09
2022-12-23T19:11:17.099Z,94701.28
2022-12-23T19:13:44.877Z,94704.97
2022-12-23T19:16:14.293Z,94726.22
2022-12-23T19:18:43.482Z,94739.81
2022-12-23T19:21:11.027Z,94711.19
2022-12-23T19:23:46.327Z,94731.50
2022-12-23T19:26:15.595Z,94723.69
2022-12-23T19:28:43.459Z,94731.03
2022-12-23T19:31:12.615Z,94726.91
2022-12-23T19:33:41.424Z,94715.97
2022-12-23T19:36:10.737Z,94747.19
2022-12-23T19:38:38.413Z,94747.16
2022-12-23T19:41:07.164Z,94771.88
2022-12-23T19:43:36.591Z,94778.16
2022-12-23T19:46:07.093Z,94787.53
2022-12-23T19:48:35.144Z,94764.38
2022-12-23T19:51:05.574Z,94796.13
2022-12-23T19:53:34.816Z,94762.31
2022-12-23T19:56:04.209Z,94796.41
2022-12-23T19:58:33.962Z,94772.31
2022-12-23T20:01:11.628Z,94767.38
2022-12-23T20:03:42.205Z,94815.91
2022-12-23T20:06:15.500Z,94818.28
2022-12-23T20:08:43.855Z,94807.59
2022-12-23T20:11:13.747Z,94810.75
2022-12-23T20:13:41.957Z,94799.81
2022-12-23T20:16:11.360Z,94778.13
2022-12-23T20:18:39.384Z,94835.72
2022-12-23T20:21:07.684Z,94829.94
2022-12-23T20:23:35.550Z,94813.41
2022-12-23T20:26:03.242Z,94843.78
2022-12-23T20:28:31.105Z,94839.84
2022-12-23T20:31:07.282Z,94836.16
2022-12-23T20:33:36.814Z,94837.22
2022-12-23T20:36:06.221Z,94829.44
2022-12-23T20:38:34.790Z,94845.03
2022-12-23T20:41:03.089Z,94853.13
2022-12-23T20:43:30.651Z,94856.28
2022-12-23T20:45:58.262Z,94819.44
2022-12-23T20:48:33.488Z,94847.69
2022-12-23T20:51:06.375Z,94815.28
2022-12-23T20:53:34.135Z,94857.31
2022-12-23T20:56:02.162Z,94855.47
2022-12-23T20:58:47.610Z,94859.41
2022-12-23T21:01:15.356Z,94833.75
2022-12-23T21:03:43.464Z,94836.78
2022-12-23T21:06:12.302Z,94870.03
2022-12-23T21:08:40.172Z,94879.69
2022-12-23T21:11:08.496Z,94865.41
2022-12-23T21:13:36.909Z,94908.53
2022-12-23T21:16:06.301Z,94876.56
2022-12-23T21:18:33.861Z,94867.75
2022-12-23T21:21:02.184Z,94911.94
2022-12-23T21:23:32.028Z,94908.56
2022-12-23T21:26:11.663Z,94934.56
2022-12-23T21:28:40.236Z,94943.94
2022-12-23T21:31:08.443Z,94945.00
2022-12-23T21:33:37.665Z,94938.50
2022-12-23T21:36:05.995Z,94936.66
2022-12-23T21:38:36.781Z,94906.78
2022-12-23T21:41:07.200Z,94931.47
2022-12-23T21:43:34.735Z,94928.63
2022-12-23T21:46:04.184Z,94937.72
2022-12-23T21:48:33.112Z,94935.41
2022-12-23T21:51:04.645Z,94940.88
2022-12-23T21:53:33.160Z,94954.91
2022-12-23T21:56:04.060Z,94938.28
2022-12-23T21:58:32.005Z,94943.50
2022-12-23T22:00:59.877Z,94961.69
2022-12-23T22:03:28.529Z,94955.97
2022-12-23T22:05:55.978Z,94972.06
2022-12-23T22:08:23.435Z,94993.09
2022-12-23T22:10:50.978Z,94989.75
2022-12-23T22:13:19.739Z,94990.00
2022-12-23T22:15:47.161Z,94970.25
2022-12-23T22:18:14.637Z,94995.72
2022-12-23T22:20:46.316Z,94983.75
2022-12-23T22:23:14.087Z,94965.84
2022-12-23T22:25:41.522Z,94985.84
2022-12-23T22:28:08.953Z,95020.41
2022-12-23T22:30:37.708Z,95016.25
2022-12-23T22:33:05.159Z,95008.72
2022-12-23T22:35:32.631Z,94989.44
2022-12-23T22:38:00.082Z,94997.00
2022-12-23T22:40:27.555Z,95009.72
2022-12-23T22:42:54.981Z,95014.16
2022-12-23T22:45:22.474Z,95033.13
2022-12-23T22:47:51.298Z,95034.94
2022-12-23T22:50:19.212Z,95027.38
2022-12-23T22:52:46.670Z,95036.47
2022-12-23T22:55:14.121Z,95030.75
2022-12-23T22:57:41.817Z,95050.50
2022-12-23T23:00:12.444Z,95041.66
2022-12-23T23:02:40.370Z,95029.97
2022-12-23T23:05:13.018Z,95059.34
2022-12-23T23:07:41.043Z,95061.41
2022-12-23T23:10:09.956Z,95068.94
2022-12-23T23:12:37.407Z,95074.41
2022-12-23T23:15:05.461Z,95078.06
2022-12-23T23:17:32.888Z,95070.00
2022-12-23T23:20:00.327Z,95069.47
2022-12-23T23:22:29.119Z,95088.97
2022-12-23T23:24:56.558Z,95071.81
2022-12-23T23:27:24.024Z,95092.59
2022-12-23T23:29:51.433Z,95083.50
2022-12-23T23:32:18.928Z,95067.88
2022-12-23T23:34:46.363Z,95088.94
2022-12-23T23:37:15.492Z,95081.63
2022-12-23T23:39:44.562Z,95093.59
2022-12-23T23:42:12.083Z,95083.41
2022-12-23T23:44:39.546Z,95079.78
2022-12-23T23:47:07.024Z,95092.78
2022-12-23T23:49:34.456Z,95085.78
2022-12-23T23:52:01.928Z,95103.69
2022-12-23T23:54:29.348Z,95110.41
2022-12-23T23:56:58.113Z,95109.09
2022-12-23T23:59:25.554Z,95100.50
